.
WxDataArchive / Data Records for 2013-12-02
2013-12-01 December 2013 2013-12-03

Data Records for Monday, 02 December 2013

Time	Temp	Chill	HIndex	Humid	Dewpt	 Wind 	HiWind	WindDir	Rain 	Barom 
-----	----	-----	------	-----	-----	------	------	-------	-----	----- 
00:00	32.7	32.7	32.7	82	27.8	0	0	---	0.00	29.990 
00:05	32.5	32.5	32.5	82	27.6	0	0	---	0.00	29.990 
00:10	32.4	32.4	32.4	82	27.5	0	0	---	0.00	29.990 
00:15	32.2	32.2	32.2	83	27.6	0	0	---	0.00	29.989 
00:20	31.9	31.9	31.9	83	27.3	0	0	---	0.00	29.989 
00:25	31.8	31.8	31.8	83	27.2	0	0	---	0.00	29.989 
00:30	31.6	31.6	31.6	83	27.0	0	0	---	0.00	29.984 
00:35	31.3	31.3	31.3	84	27.0	0	0	---	0.00	29.984 
00:40	31.0	31.0	31.0	84	26.7	0	0	---	0.00	29.984 
00:45	30.7	30.7	30.7	84	26.4	0	0	---	0.00	29.978 
00:50	30.4	30.4	30.4	84	26.2	0	0	---	0.00	29.978 
00:55	30.1	30.1	30.1	84	25.9	0	0	---	0.00	29.978 
01:00	29.8	29.8	29.8	84	25.6	0	0	---	0.00	29.969 
01:05	29.7	29.7	29.7	85	25.8	0	0	---	0.00	29.969 
01:10	29.4	29.4	29.4	85	25.5	0	0	---	0.00	29.969 
01:15	29.3	29.3	29.3	85	25.4	0	0	---	0.00	29.963 
01:20	29.1	29.1	29.1	86	25.4	0	0	---	0.00	29.963 
01:25	29.0	29.0	29.0	86	25.3	0	0	---	0.00	29.963 
01:30	28.8	28.8	28.8	86	25.2	0	0	---	0.00	29.955 
01:35	28.8	28.8	28.8	87	25.4	0	0	---	0.00	29.955 
01:40	28.7	28.7	28.7	87	25.3	0	0	---	0.00	29.955 
01:45	28.7	28.7	28.7	87	25.3	0	0	---	0.00	29.951 
01:50	28.5	28.5	28.5	87	25.1	0	0	---	0.00	29.951 
01:55	28.5	28.5	28.5	88	25.4	0	0	---	0.00	29.951 
02:00	28.4	28.4	28.4	88	25.3	0	0	---	0.00	29.952 
02:05	28.2	28.2	28.2	88	25.1	0	0	---	0.00	29.952 
02:10	28.1	28.1	28.1	88	25.0	0	0	---	0.00	29.952 
02:15	28.1	28.1	28.1	88	25.0	0	0	---	0.00	29.951 
02:20	27.9	27.9	27.9	88	24.8	0	0	---	0.00	29.951 
02:25	27.9	27.9	27.9	88	24.8	0	0	---	0.00	29.951 
02:30	27.8	27.8	27.8	88	24.7	0	0	---	0.00	29.953 
02:35	27.8	27.8	27.8	88	24.7	0	0	---	0.00	29.953 
02:40	27.6	27.6	27.6	89	24.8	0	0	---	0.00	29.953 
02:45	27.6	27.6	27.6	89	24.8	0	0	---	0.00	29.958 
02:50	27.6	27.6	27.6	89	24.8	0	0	---	0.00	29.958 
02:55	27.6	27.6	27.6	89	24.8	0	0	---	0.00	29.958 
03:00	27.5	27.5	27.5	89	24.7	0	0	---	0.00	29.963 
03:05	27.3	27.3	27.3	89	24.5	0	0	---	0.00	29.963 
03:10	27.3	27.3	27.3	89	24.5	0	0	---	0.00	29.963 
03:15	27.3	27.3	27.3	89	24.5	0	0	---	0.00	29.961 
03:20	27.3	27.3	27.3	90	24.8	0	0	---	0.00	29.961 
03:25	27.3	27.3	27.3	90	24.8	0	0	---	0.00	29.961 
03:30	27.3	27.3	27.3	90	24.8	0	0	---	0.00	29.965 
03:35	27.3	27.3	27.3	90	24.8	0	0	---	0.00	29.965 
03:40	27.2	27.2	27.2	90	24.7	0	0	---	0.00	29.965 
03:45	27.0	27.0	27.0	90	24.5	0	0	---	0.00	29.963 
03:50	27.0	27.0	27.0	90	24.5	0	0	---	0.00	29.963 
03:55	27.0	27.0	27.0	90	24.5	0	0	---	0.00	29.963 
04:00	27.0	27.0	27.0	90	24.5	0	0	---	0.00	29.959 
04:05	27.0	27.0	27.0	90	24.5	0	0	---	0.00	29.959 
04:10	27.0	27.0	27.0	90	24.5	0	0	---	0.00	29.959 
04:15	27.0	27.0	27.0	90	24.5	0	0	---	0.00	29.956 
04:20	27.0	27.0	27.0	90	24.5	0	0	---	0.00	29.956 
04:25	27.0	27.0	27.0	90	24.5	0	0	---	0.00	29.956 
04:30	26.9	26.9	26.9	90	24.4	0	0	---	0.00	29.955 
04:35	27.0	27.0	27.0	91	24.7	0	0	---	0.00	29.955 
04:40	27.0	27.0	27.0	91	24.7	0	0	---	0.00	29.955 
04:45	27.0	27.0	27.0	91	24.7	0	0	---	0.00	29.947 
04:50	27.2	27.2	27.2	91	24.9	0	0	---	0.00	29.947 
04:55	27.3	27.3	27.3	91	25.0	0	0	---	0.00	29.947 
05:00	27.6	27.6	27.6	91	25.3	0	0	---	0.00	29.952 
05:05	27.8	27.8	27.8	91	25.5	0	0	---	0.00	29.952 
05:10	27.9	27.9	27.9	91	25.6	0	0	---	0.00	29.952 
05:15	28.2	28.2	28.2	91	25.9	0	0	---	0.00	29.955 
05:20	28.7	28.7	28.7	92	26.7	0	0	---	0.00	29.955 
05:25	28.8	28.8	28.8	92	26.8	0	0	---	0.00	29.955 
05:30	29.0	29.0	29.0	92	27.0	0	0	---	0.00	29.950 
05:35	29.1	29.1	29.1	92	27.1	0	0	---	0.00	29.950 
05:40	29.1	29.1	29.1	92	27.1	0	0	---	0.00	29.950 
05:45	29.3	29.3	29.3	92	27.3	0	0	---	0.00	29.956 
05:50	29.4	29.4	29.4	92	27.4	0	0	---	0.00	29.956 
05:55	29.5	29.5	29.5	92	27.5	0	1	292	0.00	29.956 
06:00	29.7	29.7	29.7	92	27.7	0	1	292	0.00	29.947 
06:05	29.8	29.8	29.8	92	27.8	0	1	292	0.00	29.947 
06:10	30.0	30.0	30.0	92	28.0	0	1	292	0.00	29.947 
06:15	30.1	30.1	30.1	92	28.1	0	0	---	0.00	29.950 
06:20	30.3	30.3	30.3	92	28.3	0	0	---	0.00	29.950 
06:25	30.3	30.3	30.3	92	28.3	0	0	---	0.00	29.950 
06:30	30.4	30.4	30.4	92	28.4	0	0	---	0.00	29.943 
06:35	30.4	30.4	30.4	92	28.4	0	0	---	0.00	29.943 
06:40	30.6	30.6	30.6	92	28.6	0	0	---	0.00	29.943 
06:45	30.6	30.6	30.6	92	28.6	0	0	---	0.00	29.942 
06:50	30.6	30.6	30.6	92	28.6	0	1	292	0.00	29.942 
06:55	30.6	30.6	30.6	92	28.6	0	1	292	0.00	29.942 
07:00	30.7	30.7	30.7	92	28.7	0	1	292	0.00	29.938 
07:05	30.7	30.7	30.7	92	28.7	0	1	292	0.00	29.938 
07:10	30.9	30.9	30.9	92	28.9	0	2	292	0.00	29.938 
07:15	30.9	30.9	30.9	92	28.9	0	0	---	0.00	29.937 
07:20	30.9	30.9	30.9	92	28.9	0	1	292	0.00	29.937 
07:25	31.0	31.0	31.0	92	29.0	0	1	292	0.00	29.937 
07:30	31.0	31.0	31.0	92	29.0	0	2	292	0.00	29.932 
07:35	31.0	31.0	31.0	92	29.0	0	0	---	0.00	29.932 
07:40	31.0	31.0	31.0	92	29.0	0	0	---	0.00	29.932 
07:45	31.0	31.0	31.0	92	29.0	0	0	---	0.00	29.941 
07:50	31.2	31.2	31.2	92	29.2	0	0	---	0.00	29.941 
07:55	31.2	31.2	31.2	92	29.2	0	1	292	0.00	29.941 
08:00	31.3	31.3	31.3	92	29.3	0	1	292	0.00	29.940 
08:05	31.3	31.3	31.3	92	29.3	0	1	292	0.00	29.940 
08:10	31.3	31.3	31.3	92	29.3	0	1	292	0.00	29.940 
08:15	31.5	31.5	31.5	92	29.4	0	2	292	0.00	29.939 
08:20	31.5	31.5	31.5	92	29.4	0	2	292	0.00	29.939 
08:25	31.6	31.6	31.6	91	29.3	0	1	292	0.00	29.939 
08:30	31.6	31.6	31.6	91	29.3	0	3	292	0.00	29.937 
08:35	31.5	31.5	31.5	91	29.2	0	3	315	0.00	29.937 
08:40	31.5	31.5	31.5	91	29.2	1	3	315	0.00	29.937 
08:45	31.5	31.5	31.5	91	29.2	0	2	315	0.00	29.936 
08:50	31.5	31.5	31.5	91	29.2	0	2	315	0.00	29.936 
08:55	31.5	31.5	31.5	91	29.2	1	2	315	0.00	29.936 
09:00	31.5	31.5	31.5	91	29.2	1	3	315	0.00	29.931 
09:05	31.5	31.5	31.5	91	29.2	0	2	315	0.00	29.931 
09:10	31.5	31.5	31.5	91	29.2	1	4	112	0.00	29.931 
09:15	31.5	31.5	31.5	91	29.2	1	4	112	0.00	29.937 
09:20	31.6	31.6	31.6	91	29.3	1	3	112	0.00	29.937 
09:25	31.6	31.6	31.6	91	29.3	0	3	112	0.00	29.937 
09:30	31.6	31.6	31.6	91	29.3	1	3	112	0.00	29.935 
09:35	31.6	31.6	31.6	91	29.3	1	3	112	0.00	29.935 
09:40	31.6	31.6	31.6	91	29.3	1	5	112	0.00	29.935 
09:45	31.8	31.8	31.8	91	29.5	0	3	112	0.00	29.934 
09:50	31.8	31.8	31.8	91	29.5	2	6	90	0.00	29.934 
09:55	31.8	31.8	31.8	91	29.5	2	6	90	0.00	29.934 
10:00	31.8	31.8	31.8	91	29.5	1	6	90	0.00	29.931 
10:05	31.9	31.9	31.9	91	29.6	1	4	90	0.00	29.931 
10:10	31.9	31.9	31.9	91	29.6	2	5	90	0.00	29.931 
10:15	31.9	31.9	31.9	91	29.6	1	4	90	0.00	29.939 
10:20	32.1	32.1	32.1	91	29.8	2	5	90	0.00	29.939 
10:25	32.1	32.1	32.1	91	29.8	2	4	90	0.00	29.939 
10:30	32.1	32.1	32.1	90	29.5	2	5	90	0.00	29.937 
10:35	32.2	32.2	32.2	91	29.9	1	4	90	0.00	29.937 
10:40	32.2	32.2	32.2	90	29.6	2	6	112	0.00	29.937 
10:45	32.4	32.4	32.4	90	29.8	0	3	112	0.00	29.939 
10:50	32.5	32.5	32.5	90	29.9	0	2	112	0.00	29.939 
10:55	32.5	32.5	32.5	90	29.9	1	4	112	0.00	29.939 
11:00	32.5	32.5	32.5	90	29.9	2	6	112	0.00	29.939 
11:05	32.5	32.5	32.5	90	29.9	1	3	112	0.00	29.939 
11:10	32.7	32.7	32.7	89	29.8	2	4	112	0.00	29.939 
11:15	32.7	32.7	32.7	89	29.8	2	5	112	0.00	29.934 
11:20	32.9	32.9	32.9	89	30.0	1	7	112	0.00	29.934 
11:25	32.9	32.9	32.9	89	30.0	1	5	90	0.00	29.934 
11:30	33.1	33.1	33.1	88	29.9	2	6	90	0.00	29.926 
11:35	33.1	33.1	33.1	88	29.9	2	6	90	0.00	29.926 
11:40	33.2	33.2	33.2	88	30.0	2	4	90	0.00	29.926 
11:45	33.4	33.4	33.4	88	30.2	2	4	90	0.00	29.919 
11:50	33.4	33.4	33.4	88	30.2	3	5	90	0.00	29.919 
11:55	33.4	33.4	33.4	88	30.2	2	5	90	0.00	29.919 
12:00	33.7	33.7	33.7	88	30.5	1	3	90	0.00	29.919 
12:05	33.8	33.8	33.8	87	30.3	1	5	90	0.00	29.919 
12:10	34.0	34.0	34.0	87	30.5	2	5	90	0.00	29.919 
12:15	34.3	34.3	34.3	87	30.8	1	5	90	0.00	29.917 
12:20	34.4	34.4	34.4	86	30.7	2	5	90	0.00	29.917 
12:25	34.6	34.6	34.6	86	30.9	1	3	90	0.00	29.917 
12:30	34.7	34.7	34.7	85	30.7	1	3	90	0.00	29.917 
12:35	34.9	34.9	34.9	85	30.9	1	3	90	0.00	29.917 
12:40	35.0	35.0	35.0	85	31.0	1	3	90	0.00	29.917 
12:45	35.0	35.0	35.0	84	30.7	1	5	90	0.00	29.913 
12:50	35.0	35.0	35.0	84	30.7	2	5	90	0.00	29.913 
12:55	35.2	35.2	35.2	84	30.9	1	5	90	0.00	29.913 
13:00	35.3	35.3	35.3	84	31.0	2	5	90	0.00	29.901 
13:05	35.5	35.5	35.5	83	30.9	2	4	90	0.00	29.901 
13:10	35.6	35.6	35.6	83	31.0	1	3	90	0.00	29.901 
13:15	35.8	35.8	35.8	82	30.9	1	3	90	0.00	29.897 
13:20	36.0	36.0	36.0	82	31.0	1	4	90	0.00	29.897 
13:25	36.0	36.0	36.0	81	30.7	2	4	90	0.00	29.897 
13:30	36.3	36.3	36.3	81	31.0	1	3	90	0.00	29.893 
13:35	36.6	36.6	36.6	80	31.0	1	4	90	0.00	29.893 
13:40	36.8	36.8	36.8	80	31.2	2	5	90	0.00	29.893 
13:45	37.0	37.0	37.0	79	31.1	1	5	90	0.00	29.882 
13:50	37.0	37.0	37.0	78	30.8	2	6	90	0.00	29.882 
13:55	37.2	37.2	37.2	78	31.0	1	5	90	0.00	29.882 
14:00	37.3	37.3	37.3	78	31.1	1	4	90	0.00	29.880 
14:05	37.3	37.3	37.3	78	31.1	2	4	90	0.00	29.880 
14:10	37.3	37.3	37.3	77	30.8	2	5	90	0.00	29.880 
14:15	37.5	37.5	37.5	77	31.0	2	6	90	0.00	29.877 
14:20	37.5	37.5	37.5	76	30.6	2	6	90	0.00	29.877 
14:25	37.8	37.8	37.8	77	31.2	2	6	112	0.00	29.877 
14:30	38.0	38.0	38.0	75	30.8	2	6	90	0.00	29.874 
14:35	38.3	38.3	38.3	75	31.1	1	3	90	0.00	29.874 
14:40	38.3	38.3	38.3	74	30.8	2	6	112	0.00	29.874 
14:45	38.2	38.2	38.2	74	30.7	2	5	112	0.00	29.869 
14:50	38.2	38.2	38.2	74	30.7	1	4	112	0.00	29.869 
14:55	37.9	37.9	37.9	75	30.7	1	5	112	0.00	29.869 
15:00	37.9	37.9	37.9	74	30.4	2	5	112	0.00	29.864 
15:05	38.0	38.0	38.0	75	30.8	1	5	112	0.00	29.864 
15:10	38.0	38.0	38.0	75	30.8	0	2	112	0.00	29.864 
15:15	37.9	37.9	37.9	75	30.7	1	4	112	0.00	29.863 
15:20	37.8	37.8	37.8	75	30.6	1	6	112	0.00	29.863 
15:25	37.6	37.6	37.6	76	30.7	1	4	112	0.00	29.863 
15:30	37.5	37.5	37.5	76	30.6	1	3	112	0.00	29.851 
15:35	37.2	37.2	37.2	76	30.3	1	5	112	0.00	29.851 
15:40	37.0	37.0	37.0	77	30.5	1	4	112	0.00	29.851 
15:45	37.0	37.0	37.0	77	30.5	0	2	112	0.00	29.857 
15:50	37.0	37.0	37.0	77	30.5	1	3	112	0.00	29.857 
15:55	37.0	37.0	37.0	77	30.5	1	5	112	0.00	29.857 
16:00	37.0	37.0	37.0	77	30.5	1	4	112	0.00	29.857 
16:05	37.0	37.0	37.0	77	30.5	1	5	112	0.00	29.857 
16:10	37.0	37.0	37.0	77	30.5	0	2	112	0.00	29.857 
16:15	37.0	37.0	37.0	77	30.5	1	3	112	0.00	29.860 
16:20	37.0	37.0	37.0	77	30.5	2	10	90	0.00	29.860 
16:25	37.0	37.0	37.0	76	30.2	1	4	90	0.00	29.860 
16:30	36.9	36.9	36.9	76	30.1	2	5	90	0.00	29.862 
16:35	36.9	36.9	36.9	76	30.1	1	3	90	0.00	29.862 
16:40	36.9	36.9	36.9	76	30.1	1	3	90	0.00	29.862 
16:45	36.8	36.8	36.8	76	30.0	1	5	90	0.00	29.863 
16:50	36.8	36.8	36.8	76	30.0	1	4	90	0.00	29.863 
16:55	36.6	36.6	36.6	76	29.8	2	5	90	0.00	29.863 
17:00	36.5	36.5	36.5	76	29.7	1	4	112	0.00	29.863 
17:05	36.3	36.3	36.3	76	29.5	2	4	112	0.00	29.863 
17:10	36.2	36.2	36.2	76	29.4	2	5	112	0.00	29.863 
17:15	36.0	36.0	36.0	77	29.5	2	6	90	0.00	29.862 
17:20	36.0	36.0	36.0	77	29.5	2	5	90	0.00	29.862 
17:25	35.9	35.9	35.9	77	29.4	2	6	90	0.00	29.862 
17:30	35.9	35.9	35.9	77	29.4	2	5	90	0.00	29.861 
17:35	35.8	35.8	35.8	77	29.3	1	3	90	0.00	29.861 
17:40	35.8	35.8	35.8	77	29.3	1	3	90	0.00	29.861 
17:45	35.6	35.6	35.6	77	29.1	1	3	90	0.00	29.864 
17:50	35.5	35.5	35.5	78	29.3	1	3	90	0.00	29.864 
17:55	35.5	35.5	35.5	78	29.3	1	4	90	0.00	29.864 
18:00	35.5	35.5	35.5	78	29.3	0	2	90	0.00	29.864 
18:05	35.5	35.5	35.5	78	29.3	1	4	90	0.00	29.864 
18:10	35.5	35.5	35.5	78	29.3	1	4	90	0.00	29.864 
18:15	35.5	35.5	35.5	78	29.3	1	3	90	0.00	29.865 
18:20	35.5	35.5	35.5	77	29.0	1	3	90	0.00	29.865 
18:25	35.5	35.5	35.5	77	29.0	1	3	90	0.00	29.865 
18:30	35.5	35.5	35.5	78	29.3	1	4	90	0.00	29.865 
18:35	35.5	35.5	35.5	78	29.3	1	4	90	0.00	29.865 
18:40	35.3	35.3	35.3	78	29.1	1	4	90	0.00	29.865 
18:45	35.3	35.3	35.3	78	29.1	1	4	90	0.00	29.864 
18:50	35.3	35.3	35.3	78	29.1	1	4	90	0.00	29.864 
18:55	35.3	35.3	35.3	78	29.1	1	5	90	0.00	29.864 
19:00	35.3	35.3	35.3	78	29.1	1	4	90	0.00	29.865 
19:05	35.2	35.2	35.2	78	29.0	2	5	90	0.00	29.865 
19:10	35.2	35.2	35.2	78	29.0	2	4	90	0.00	29.865 
19:15	35.2	35.2	35.2	78	29.0	2	5	90	0.00	29.866 
19:20	35.2	35.2	35.2	79	29.4	1	4	90	0.00	29.866 
19:25	35.0	35.0	35.0	79	29.2	2	5	90	0.00	29.866 
19:30	35.0	35.0	35.0	79	29.2	3	5	90	0.00	29.864 
19:35	34.9	34.9	34.9	79	29.1	2	5	90	0.00	29.864 
19:40	34.9	34.9	34.9	79	29.1	3	6	90	0.00	29.864 
19:45	34.9	34.9	34.9	79	29.1	2	6	90	0.00	29.863 
19:50	34.9	34.9	34.9	79	29.1	2	5	90	0.00	29.863 
19:55	34.7	34.7	34.7	80	29.2	2	5	90	0.00	29.863 
20:00	34.7	34.7	34.7	80	29.2	2	6	90	0.00	29.863 
20:05	34.7	34.7	34.7	80	29.2	2	6	90	0.00	29.863 
20:10	34.7	34.7	34.7	80	29.2	3	7	90	0.00	29.863 
20:15	34.6	34.6	34.6	81	29.4	2	6	90	0.00	29.865 
20:20	34.6	34.6	34.6	81	29.4	2	5	90	0.00	29.865 
20:25	34.6	34.6	34.6	81	29.4	3	6	68	0.00	29.865 
20:30	34.6	34.6	34.6	81	29.4	2	5	68	0.00	29.865 
20:35	34.4	34.4	34.4	82	29.5	2	5	112	0.00	29.865 
20:40	34.4	34.4	34.4	83	29.8	2	6	68	0.00	29.865 
20:45	34.3	34.3	34.3	83	29.7	2	5	68	0.00	29.866 
20:50	34.3	34.3	34.3	84	30.0	2	4	90	0.00	29.866 
20:55	34.1	34.1	34.1	84	29.8	2	5	90	0.00	29.866 
21:00	34.1	34.1	34.1	84	29.8	2	6	112	0.00	29.864 
21:05	34.0	34.0	34.0	84	29.7	1	4	68	0.00	29.864 
21:10	34.0	34.0	34.0	85	30.0	2	7	90	0.00	29.864 
21:15	33.8	33.8	33.8	85	29.8	2	5	90	0.00	29.870 
21:20	33.8	33.8	33.8	86	30.1	1	3	90	0.00	29.870 
21:25	33.8	33.8	33.8	86	30.1	1	4	90	0.00	29.870 
21:30	33.7	33.7	33.7	86	30.0	2	7	90	0.00	29.867 
21:35	33.7	33.7	33.7	87	30.3	1	4	90	0.00	29.867 
21:40	33.7	33.7	33.7	87	30.3	1	4	90	0.00	29.867 
21:45	33.5	33.5	33.5	87	30.1	1	4	90	0.00	29.868 
21:50	33.5	33.5	33.5	88	30.3	1	4	90	0.00	29.868 
21:55	33.5	33.5	33.5	88	30.3	1	4	90	0.00	29.868 
22:00	33.5	33.5	33.5	88	30.3	2	6	90	0.00	29.870 
22:05	33.4	33.4	33.4	88	30.2	2	6	90	0.00	29.870 
22:10	33.4	33.4	33.4	89	30.5	1	4	90	0.00	29.870 
22:15	33.4	33.4	33.4	89	30.5	1	6	90	0.00	29.872 
22:20	33.4	33.4	33.4	89	30.5	2	6	90	0.00	29.872 
22:25	33.4	33.4	33.4	89	30.5	1	6	90	0.00	29.872 
22:30	33.4	33.4	33.4	90	30.8	2	6	68	0.00	29.876 
22:35	33.4	33.4	33.4	90	30.8	2	5	90	0.00	29.876 
22:40	33.4	33.4	33.4	90	30.8	2	5	68	0.00	29.876 
22:45	33.5	33.5	33.5	90	30.9	2	4	68	0.00	29.873 
22:50	33.5	33.5	33.5	90	30.9	2	5	90	0.00	29.873 
22:55	33.5	33.5	33.5	90	30.9	2	6	90	0.00	29.873 
23:00	33.5	33.5	33.5	91	31.2	2	5	90	0.00	29.875 
23:05	33.5	33.5	33.5	91	31.2	2	5	90	0.00	29.875 
23:10	33.5	33.5	33.5	91	31.2	2	6	90	0.00	29.875 
23:15	33.5	33.5	33.5	91	31.2	3	6	90	0.00	29.867 
23:20	33.5	33.5	33.5	91	31.2	2	5	90	0.00	29.867 
23:25	33.5	29.8	33.5	91	31.2	4	9	90	0.00	29.867 
23:30	33.5	33.5	33.5	91	31.2	3	8	112	0.00	29.860 
23:35	33.5	33.5	33.5	91	31.2	3	6	90	0.00	29.860 
23:40	33.5	33.5	33.5	91	31.2	2	6	90	0.00	29.860 
23:45	33.5	33.5	33.5	91	31.2	3	6	90	0.00	29.867 
23:50	33.5	33.5	33.5	91	31.2	2	6	90	0.00	29.867 
23:55	33.5	33.5	33.5	91	31.2	3	10	68	0.00	29.867 

CoCoRaHS
IN-AL-39
A2 Web Hosting
Creative Commons License
GoDaddy
search engine by freefind advanced

loaded 2018-11-22 06:22:53 • last modified 2010-11-18 10:43:29
Privacy PolicyDisclaimer
• wx.awcolley.com is powered by PmWiki v.2002016 •
• all content (unless otherwise noted) © 2018 A W Colley